Lake Mills, WI (53551)

6:52 AM CDT on August 27, 2016 (GMT -0500)
Cambridge | | Change Station

Elev 883 ft 43.00 °N, 89.01 °W | Updated 7 seconds ago

Overcast
Overcast
61.9 °F
Feels Like 61.9 °F
N
3.4
Wind Variable Wind from NE

Today
High -- | Low -- °F
--% Chance of Precip.
Yesterday
High -- | Low -- °F
Precip. -- in
Pressure 30.09 in
Visibility 10.0 miles
Clouds Scattered Clouds 800 ft
Scattered Clouds 1300 ft
Overcast 3200 ft
Dew Point 58 °F
Humidity 88%
Rainfall Not available.
Snow Depth Not available.
6:15 AM 7:38 PM
Waning Crescent, 25% visible
METAR KRYV 271135Z AUTO 06008KT 10SM SCT008 SCT013 OVC032 16/16 A3009 RMK AO2 P0004 T01610161
Pressure 30.09 in
Visibility 10.0 miles
Clouds Scattered Clouds 800 ft
Scattered Clouds 1300 ft
Overcast 3200 ft
Dew Point 58 °F
Humidity 88%
Rainfall Not available.
Snow Depth Not available.
6:15 AM 7:38 PM
Waning Crescent, 25% visible
METAR KRYV 271135Z AUTO 06008KT 10SM SCT008 SCT013 OVC032 16/16 A3009 RMK AO2 P0004 T01610161

10-Day Weather Forecast

Almanac

Astronomy

Aug. 27, 2016 Rise Set
Actual Time
Civil Twilight
Nautical Twilight
Astronomical Twilight
Moon
Length of Visible Light
Length of Day
Tomorrow will be .
, % of the Moon is Illuminated

Today's Extremes

State Highs State Lows

Community

WunderPhotos

Upload Photos

1,935,325 photos uploaded!

WunderBlog® & News

Nearby

Air Quality

  Air Quality AQ Index Pollutant
Not available.

Snow Depth

Station Depth Elevation

Earthquake Activity

City Distance Mag. Time & Date
Minimum magnitude displayed is 2.5.

Coastal Water Temperatures

Place Temperature

Stations

Nearby Weather Stations

Station Location Temp. Windchill Dew Point Humidity Wind Precip. Elev Updated Type
                   

Watches & Warnings

There are currently no watches in effect.